TCISK LTAU-LTBH
Flight info
| Callsign | TCISK |
|---|---|
| Flight time | 1h 28m |
| Altitude | 47000 |
| Route | KISLA A17 BAG G8 YAA DCT BIG |
| Aircraft | C750/M-SBDE3FGHRWXY/S |
Departure
| Time | 2026-05-05 19:34 |
|---|---|
| Airport | Kayseri Erkilet International Airport (LTAU) |
Arrival
| Time | 2026-05-05 21:02 |
|---|---|
| Airport | Çanakkale Airport (LTBH) |
| Time | Latitude | Longitude | Altitude | Speed | Heading |
|---|---|---|---|---|---|
| 2026-05-05 19:10 | 38.76619 | 35.48486 | 3465 ft | 0 kts | 166° |
| 2026-05-05 19:20 | 38.76630 | 35.48482 | 3465 ft | 2 kts | 166° |
| 2026-05-05 19:20 | 38.76647 | 35.48477 | 3465 ft | 2 kts | 166° |
| 2026-05-05 19:20 | 38.76657 | 35.48474 | 3465 ft | 0 kts | 166° |
| 2026-05-05 19:22 | 38.76656 | 35.48475 | 3465 ft | 1 kts | 157° |
| 2026-05-05 19:22 | 38.76660 | 35.48493 | 3465 ft | 5 kts | 45° |
| 2026-05-05 19:22 | 38.76703 | 35.48508 | 3465 ft | 7 kts | 36° |
| 2026-05-05 19:23 | 38.76711 | 35.48540 | 3465 ft | 2 kts | 81° |
| 2026-05-05 19:23 | 38.76713 | 35.48554 | 3465 ft | 1 kts | 78° |
| 2026-05-05 19:23 | 38.76713 | 35.48555 | 3465 ft | 0 kts | 78° |
| 2026-05-05 19:24 | 38.76721 | 35.48601 | 3465 ft | 9 kts | 78° |
| 2026-05-05 19:25 | 38.76741 | 35.48644 | 3465 ft | 4 kts | 12° |
| 2026-05-05 19:25 | 38.76772 | 35.48638 | 3465 ft | 6 kts | 347° |
| 2026-05-05 19:25 | 38.76825 | 35.48622 | 3464 ft | 10 kts | 345° |
| 2026-05-05 19:25 | 38.76896 | 35.48601 | 3463 ft | 8 kts | 346° |
| 2026-05-05 19:26 | 38.76926 | 35.48592 | 3463 ft | 6 kts | 346° |
| 2026-05-05 19:26 | 38.76967 | 35.48580 | 3463 ft | 7 kts | 347° |
| 2026-05-05 19:26 | 38.77005 | 35.48607 | 3461 ft | 6 kts | 74° |
| 2026-05-05 19:26 | 38.77017 | 35.48665 | 3461 ft | 7 kts | 76° |
| 2026-05-05 19:27 | 38.77027 | 35.48717 | 3461 ft | 5 kts | 76° |
| 2026-05-05 19:27 | 38.77035 | 35.48759 | 3462 ft | 6 kts | 76° |
| 2026-05-05 19:27 | 38.77044 | 35.48807 | 3463 ft | 5 kts | 77° |
| 2026-05-05 19:27 | 38.77053 | 35.48856 | 3464 ft | 8 kts | 77° |
| 2026-05-05 19:28 | 38.77070 | 35.48951 | 3465 ft | 15 kts | 77° |
| 2026-05-05 19:28 | 38.77101 | 35.49115 | 3466 ft | 23 kts | 75° |
| 2026-05-05 19:28 | 38.77135 | 35.49294 | 3465 ft | 20 kts | 76° |
| 2026-05-05 19:28 | 38.77170 | 35.49471 | 3464 ft | 21 kts | 76° |
| 2026-05-05 19:29 | 38.77202 | 35.49643 | 3464 ft | 19 kts | 76° |
| 2026-05-05 19:29 | 38.77234 | 35.49810 | 3460 ft | 20 kts | 77° |
| 2026-05-05 19:29 | 38.77266 | 35.49983 | 3458 ft | 20 kts | 76° |
| 2026-05-05 19:29 | 38.77298 | 35.50150 | 3458 ft | 19 kts | 76° |
| 2026-05-05 19:30 | 38.77328 | 35.50307 | 3459 ft | 17 kts | 77° |
| 2026-05-05 19:30 | 38.77354 | 35.50441 | 3463 ft | 13 kts | 75° |
| 2026-05-05 19:30 | 38.77366 | 35.50516 | 3464 ft | 2 kts | 98° |
| 2026-05-05 19:30 | 38.77350 | 35.50539 | 3464 ft | 5 kts | 157° |
| 2026-05-05 19:31 | 38.77325 | 35.50546 | 3464 ft | 0 kts | 166° |
| 2026-05-05 19:32 | 38.77315 | 35.50549 | 3464 ft | 5 kts | 166° |
| 2026-05-05 19:32 | 38.77263 | 35.50563 | 3463 ft | 9 kts | 182° |
| 2026-05-05 19:32 | 38.77226 | 35.50505 | 3461 ft | 6 kts | 256° |
| 2026-05-05 19:32 | 38.77218 | 35.50461 | 3460 ft | 6 kts | 256° |
| 2026-05-05 19:33 | 38.77209 | 35.50414 | 3459 ft | 5 kts | 256° |
| 2026-05-05 19:33 | 38.77200 | 35.50367 | 3459 ft | 7 kts | 256° |
| 2026-05-05 19:33 | 38.77135 | 35.50026 | 3458 ft | 94 kts | 256° |
| 2026-05-05 19:33 | 38.76921 | 35.48921 | 3769 ft | 134 kts | 256° |
| 2026-05-05 19:34 | 38.76683 | 35.47800 | 4692 ft | 130 kts | 257° |
| 2026-05-05 19:34 | 38.76503 | 35.46613 | 5326 ft | 144 kts | 262° |
| 2026-05-05 19:34 | 38.76285 | 35.45262 | 5795 ft | 166 kts | 259° |
| 2026-05-05 19:35 | 38.76032 | 35.41910 | 6757 ft | 220 kts | 289° |
| 2026-05-05 19:35 | 38.76720 | 35.40043 | 7369 ft | 244 kts | 298° |
| 2026-05-05 19:35 | 38.77510 | 35.38002 | 8100 ft | 265 kts | 295° |
| 2026-05-05 19:35 | 38.78220 | 35.35807 | 9292 ft | 267 kts | 292° |
| 2026-05-05 19:36 | 38.78916 | 35.33567 | 10245 ft | 275 kts | 293° |
| 2026-05-05 19:36 | 38.79686 | 35.31203 | 10645 ft | 299 kts | 294° |
| 2026-05-05 19:36 | 38.80508 | 35.28714 | 11479 ft | 303 kts | 294° |
| 2026-05-05 19:36 | 38.81324 | 35.26202 | 12395 ft | 307 kts | 294° |
| 2026-05-05 19:37 | 38.82137 | 35.23687 | 13231 ft | 312 kts | 294° |
| 2026-05-05 19:37 | 38.82975 | 35.21101 | 14060 ft | 316 kts | 294° |
| 2026-05-05 19:37 | 38.83826 | 35.18483 | 14845 ft | 320 kts | 294° |
| 2026-05-05 19:37 | 38.84685 | 35.15831 | 15634 ft | 323 kts | 294° |
| 2026-05-05 19:38 | 38.85553 | 35.13147 | 16437 ft | 327 kts | 294° |
| 2026-05-05 19:38 | 38.86431 | 35.10431 | 17269 ft | 330 kts | 294° |
| 2026-05-05 19:38 | 38.87315 | 35.07693 | 18110 ft | 334 kts | 294° |
| 2026-05-05 19:38 | 38.88211 | 35.04917 | 18891 ft | 338 kts | 294° |
| 2026-05-05 19:39 | 38.89112 | 35.02117 | 19696 ft | 340 kts | 294° |
| 2026-05-05 19:39 | 38.90023 | 34.99291 | 20521 ft | 343 kts | 294° |
| 2026-05-05 19:39 | 38.90925 | 34.96486 | 21326 ft | 345 kts | 294° |
| 2026-05-05 19:39 | 38.91848 | 34.93614 | 22129 ft | 349 kts | 294° |
| 2026-05-05 19:40 | 38.92778 | 34.90716 | 22921 ft | 352 kts | 294° |
| 2026-05-05 19:40 | 38.93716 | 34.87792 | 23698 ft | 355 kts | 295° |
| 2026-05-05 19:40 | 38.94661 | 34.84841 | 24376 ft | 358 kts | 295° |
| 2026-05-05 19:40 | 38.95599 | 34.81910 | 25058 ft | 360 kts | 295° |
| 2026-05-05 19:41 | 38.96554 | 34.78924 | 25737 ft | 363 kts | 295° |
| 2026-05-05 19:41 | 38.97515 | 34.75914 | 26426 ft | 365 kts | 295° |
| 2026-05-05 19:41 | 38.98484 | 34.72877 | 27104 ft | 368 kts | 296° |
| 2026-05-05 19:41 | 38.99463 | 34.69806 | 27509 ft | 379 kts | 296° |
| 2026-05-05 19:42 | 39.00494 | 34.66585 | 27532 ft | 398 kts | 296° |
| 2026-05-05 19:42 | 39.01564 | 34.63218 | 27685 ft | 412 kts | 295° |
| 2026-05-05 19:42 | 39.02629 | 34.59839 | 28372 ft | 413 kts | 295° |
| 2026-05-05 19:42 | 39.03717 | 34.56404 | 28989 ft | 416 kts | 296° |
| 2026-05-05 19:43 | 39.04816 | 34.52947 | 29582 ft | 419 kts | 296° |
| 2026-05-05 19:43 | 39.05921 | 34.49459 | 30151 ft | 422 kts | 296° |
| 2026-05-05 19:43 | 39.07029 | 34.45946 | 30564 ft | 426 kts | 296° |
| 2026-05-05 19:43 | 39.08152 | 34.42388 | 31000 ft | 429 kts | 296° |
| 2026-05-05 19:44 | 39.09273 | 34.38827 | 31637 ft | 428 kts | 295° |
| 2026-05-05 19:44 | 39.10391 | 34.35274 | 32254 ft | 427 kts | 295° |
| 2026-05-05 19:44 | 39.11663 | 34.31830 | 32807 ft | 425 kts | 302° |
| 2026-05-05 19:44 | 39.13195 | 34.28637 | 33412 ft | 423 kts | 307° |
| 2026-05-05 19:45 | 39.15016 | 34.25672 | 34043 ft | 422 kts | 312° |
| 2026-05-05 19:45 | 39.16917 | 34.22774 | 34520 ft | 423 kts | 311° |
| 2026-05-05 19:45 | 39.18806 | 34.19848 | 34999 ft | 424 kts | 311° |
| 2026-05-05 19:45 | 39.20697 | 34.16918 | 35498 ft | 425 kts | 310° |
| 2026-05-05 19:46 | 39.22608 | 34.13982 | 35934 ft | 428 kts | 310° |
| 2026-05-05 19:46 | 39.24532 | 34.11025 | 36390 ft | 431 kts | 310° |
| 2026-05-05 19:46 | 39.26436 | 34.08079 | 36769 ft | 435 kts | 310° |
| 2026-05-05 19:46 | 39.28384 | 34.05061 | 37205 ft | 438 kts | 310° |
| 2026-05-05 19:47 | 39.30345 | 34.02027 | 37673 ft | 440 kts | 309° |
| 2026-05-05 19:47 | 39.32315 | 33.98980 | 38149 ft | 442 kts | 309° |
| 2026-05-05 19:47 | 39.34292 | 33.95914 | 38626 ft | 445 kts | 309° |
| 2026-05-05 19:47 | 39.36273 | 33.92837 | 39061 ft | 445 kts | 309° |
| 2026-05-05 19:48 | 39.38255 | 33.89758 | 39522 ft | 445 kts | 309° |
| 2026-05-05 19:48 | 39.40208 | 33.86722 | 39946 ft | 445 kts | 309° |
| 2026-05-05 19:48 | 39.42188 | 33.83640 | 40358 ft | 446 kts | 309° |
| 2026-05-05 19:48 | 39.44171 | 33.80551 | 40787 ft | 446 kts | 309° |
| 2026-05-05 19:49 | 39.46151 | 33.77462 | 41212 ft | 446 kts | 309° |
| 2026-05-05 19:49 | 39.47481 | 33.75358 | 41501 ft | 447 kts | 308° |
| 2026-05-05 19:49 | 39.50040 | 33.71189 | 42056 ft | 447 kts | 307° |
| 2026-05-05 19:49 | 39.51982 | 33.68034 | 42467 ft | 447 kts | 308° |
| 2026-05-05 19:50 | 39.53942 | 33.64899 | 42878 ft | 448 kts | 308° |
| 2026-05-05 19:50 | 39.55902 | 33.61757 | 43283 ft | 448 kts | 308° |
| 2026-05-05 19:50 | 39.57848 | 33.58605 | 43675 ft | 448 kts | 308° |
| 2026-05-05 19:50 | 39.59857 | 33.55501 | 44044 ft | 449 kts | 309° |
| 2026-05-05 19:51 | 39.61845 | 33.52375 | 44439 ft | 449 kts | 308° |
| 2026-05-05 19:51 | 39.63829 | 33.49235 | 44812 ft | 449 kts | 308° |
| 2026-05-05 19:51 | 39.65826 | 33.46115 | 45157 ft | 450 kts | 309° |
| 2026-05-05 19:51 | 39.67832 | 33.42996 | 45492 ft | 449 kts | 309° |
| 2026-05-05 19:52 | 39.69802 | 33.39908 | 45802 ft | 450 kts | 308° |
| 2026-05-05 19:52 | 39.71794 | 33.36768 | 46099 ft | 449 kts | 308° |
| 2026-05-05 19:52 | 39.73788 | 33.33633 | 46390 ft | 449 kts | 309° |
| 2026-05-05 19:52 | 39.75784 | 33.30500 | 46663 ft | 450 kts | 309° |
| 2026-05-05 19:53 | 39.77774 | 33.27370 | 46923 ft | 447 kts | 308° |
| 2026-05-05 19:53 | 39.81769 | 33.21066 | 47011 ft | 456 kts | 308° |
| 2026-05-05 19:54 | 39.85829 | 33.14654 | 47030 ft | 466 kts | 308° |
| 2026-05-05 19:54 | 39.90002 | 33.08047 | 47029 ft | 477 kts | 308° |
| 2026-05-05 19:55 | 39.94256 | 33.01299 | 47029 ft | 483 kts | 308° |
| 2026-05-05 19:55 | 39.98499 | 32.94552 | 47028 ft | 484 kts | 308° |
| 2026-05-05 19:56 | 40.02048 | 32.88899 | 47021 ft | 485 kts | 308° |
| 2026-05-05 19:56 | 40.06001 | 32.81782 | 47012 ft | 484 kts | 297° |
| 2026-05-05 19:57 | 40.08206 | 32.73520 | 47024 ft | 483 kts | 281° |
| 2026-05-05 19:57 | 40.09213 | 32.64841 | 47034 ft | 483 kts | 279° |
| 2026-05-05 19:58 | 40.10520 | 32.56290 | 47030 ft | 483 kts | 281° |
| 2026-05-05 19:58 | 40.11673 | 32.47652 | 47036 ft | 482 kts | 279° |
| 2026-05-05 19:59 | 40.12892 | 32.39011 | 47041 ft | 482 kts | 281° |
| 2026-05-05 19:59 | 40.14071 | 32.30425 | 47042 ft | 483 kts | 280° |
| 2026-05-05 20:00 | 40.15253 | 32.21785 | 47047 ft | 482 kts | 280° |
| 2026-05-05 20:00 | 40.16435 | 32.13150 | 47050 ft | 482 kts | 280° |
| 2026-05-05 20:01 | 40.17412 | 32.04471 | 47038 ft | 483 kts | 276° |
| 2026-05-05 20:01 | 40.18015 | 31.95706 | 47047 ft | 483 kts | 276° |
| 2026-05-05 20:02 | 40.18700 | 31.87021 | 47044 ft | 483 kts | 278° |
| 2026-05-05 20:02 | 40.19741 | 31.78336 | 47044 ft | 482 kts | 279° |
| 2026-05-05 20:03 | 40.20772 | 31.69674 | 47051 ft | 482 kts | 279° |
| 2026-05-05 20:03 | 40.21790 | 31.61005 | 47052 ft | 482 kts | 279° |
| 2026-05-05 20:04 | 40.22811 | 31.52344 | 47050 ft | 482 kts | 279° |
| 2026-05-05 20:04 | 40.23812 | 31.43716 | 47057 ft | 482 kts | 279° |
| 2026-05-05 20:05 | 40.24819 | 31.35042 | 47061 ft | 481 kts | 279° |
| 2026-05-05 20:05 | 40.25814 | 31.26366 | 47064 ft | 481 kts | 279° |
| 2026-05-05 20:06 | 40.26798 | 31.17749 | 47066 ft | 480 kts | 279° |
| 2026-05-05 20:06 | 40.27782 | 31.09067 | 47065 ft | 480 kts | 279° |
| 2026-05-05 20:07 | 40.28753 | 31.00449 | 47068 ft | 480 kts | 279° |
| 2026-05-05 20:07 | 40.29720 | 30.91790 | 47076 ft | 479 kts | 279° |
| 2026-05-05 20:08 | 40.30683 | 30.83124 | 47072 ft | 480 kts | 279° |
| 2026-05-05 20:08 | 40.31637 | 30.74467 | 47074 ft | 480 kts | 279° |
| 2026-05-05 20:09 | 40.32580 | 30.65852 | 47077 ft | 480 kts | 279° |
| 2026-05-05 20:09 | 40.33523 | 30.57175 | 47074 ft | 479 kts | 279° |
| 2026-05-05 20:10 | 40.34452 | 30.48565 | 47071 ft | 479 kts | 278° |
| 2026-05-05 20:10 | 40.35380 | 30.39905 | 47074 ft | 479 kts | 278° |
| 2026-05-05 20:11 | 40.36302 | 30.31235 | 47073 ft | 479 kts | 278° |
| 2026-05-05 20:11 | 40.37217 | 30.22572 | 47071 ft | 479 kts | 278° |
| 2026-05-05 20:12 | 40.38127 | 30.13909 | 47076 ft | 479 kts | 278° |
| 2026-05-05 20:12 | 40.39031 | 30.05307 | 47069 ft | 479 kts | 278° |
| 2026-05-05 20:13 | 40.39931 | 29.96644 | 47066 ft | 479 kts | 278° |
| 2026-05-05 20:13 | 40.40824 | 29.87982 | 47067 ft | 479 kts | 278° |
| 2026-05-05 20:14 | 40.41704 | 29.79325 | 47064 ft | 478 kts | 278° |
| 2026-05-05 20:14 | 40.42581 | 29.70669 | 47066 ft | 478 kts | 278° |
| 2026-05-05 20:15 | 40.43444 | 29.62066 | 47068 ft | 478 kts | 278° |
| 2026-05-05 20:15 | 40.44309 | 29.53398 | 47071 ft | 480 kts | 279° |
| 2026-05-05 20:16 | 40.45167 | 29.44722 | 47069 ft | 478 kts | 278° |
| 2026-05-05 20:16 | 40.46018 | 29.36061 | 47069 ft | 478 kts | 278° |
| 2026-05-05 20:17 | 40.46858 | 29.27437 | 47065 ft | 478 kts | 278° |
| 2026-05-05 20:17 | 40.47310 | 29.18738 | 47057 ft | 480 kts | 268° |
| 2026-05-05 20:18 | 40.46461 | 29.10002 | 47074 ft | 481 kts | 264° |
| 2026-05-05 20:18 | 40.45636 | 29.01279 | 47077 ft | 481 kts | 265° |
| 2026-05-05 20:19 | 40.44782 | 28.92570 | 47075 ft | 480 kts | 264° |
| 2026-05-05 20:19 | 40.43931 | 28.83905 | 47055 ft | 482 kts | 265° |
| 2026-05-05 20:19 | 40.43510 | 28.79584 | 46458 ft | 473 kts | 265° |
| 2026-05-05 20:20 | 40.43084 | 28.75341 | 45849 ft | 463 kts | 264° |
| 2026-05-05 20:20 | 40.42667 | 28.71188 | 45248 ft | 454 kts | 265° |
| 2026-05-05 20:20 | 40.42262 | 28.67115 | 44652 ft | 446 kts | 265° |
| 2026-05-05 20:20 | 40.41863 | 28.63103 | 44057 ft | 441 kts | 265° |
| 2026-05-05 20:21 | 40.41466 | 28.59160 | 43482 ft | 441 kts | 265° |
| 2026-05-05 20:21 | 40.41060 | 28.55145 | 42904 ft | 445 kts | 265° |
| 2026-05-05 20:21 | 40.40650 | 28.51093 | 42313 ft | 448 kts | 265° |
| 2026-05-05 20:21 | 40.40237 | 28.47039 | 41722 ft | 448 kts | 265° |
| 2026-05-05 20:22 | 40.39822 | 28.42973 | 41126 ft | 449 kts | 265° |
| 2026-05-05 20:22 | 40.39406 | 28.38904 | 40539 ft | 449 kts | 265° |
| 2026-05-05 20:22 | 40.38994 | 28.34893 | 39949 ft | 449 kts | 266° |
| 2026-05-05 20:22 | 40.38574 | 28.30818 | 39361 ft | 451 kts | 266° |
| 2026-05-05 20:23 | 40.38151 | 28.26732 | 38770 ft | 452 kts | 266° |
| 2026-05-05 20:23 | 40.37726 | 28.22638 | 38113 ft | 451 kts | 266° |
| 2026-05-05 20:23 | 40.37301 | 28.18552 | 37520 ft | 453 kts | 265° |
| 2026-05-05 20:23 | 40.36873 | 28.14455 | 36921 ft | 454 kts | 265° |
| 2026-05-05 20:24 | 40.36440 | 28.10339 | 36322 ft | 456 kts | 265° |
| 2026-05-05 20:24 | 40.36012 | 28.06270 | 35726 ft | 457 kts | 265° |
| 2026-05-05 20:24 | 40.35576 | 28.02146 | 35129 ft | 457 kts | 265° |
| 2026-05-05 20:24 | 40.35137 | 27.98014 | 34525 ft | 458 kts | 265° |
| 2026-05-05 20:25 | 40.34698 | 27.93879 | 33960 ft | 458 kts | 265° |
| 2026-05-05 20:25 | 40.34256 | 27.89735 | 33343 ft | 461 kts | 265° |
| 2026-05-05 20:25 | 40.33809 | 27.85558 | 32734 ft | 463 kts | 265° |
| 2026-05-05 20:25 | 40.33357 | 27.81363 | 32119 ft | 466 kts | 265° |
| 2026-05-05 20:26 | 40.32903 | 27.77167 | 31505 ft | 464 kts | 265° |
| 2026-05-05 20:26 | 40.32448 | 27.72964 | 30892 ft | 467 kts | 265° |
| 2026-05-05 20:26 | 40.31996 | 27.68783 | 30283 ft | 467 kts | 264° |
| 2026-05-05 20:26 | 40.31536 | 27.64586 | 29628 ft | 462 kts | 264° |
| 2026-05-05 20:27 | 40.31080 | 27.60440 | 29025 ft | 458 kts | 264° |
| 2026-05-05 20:27 | 40.30628 | 27.56316 | 28422 ft | 453 kts | 264° |
| 2026-05-05 20:27 | 40.30181 | 27.52244 | 27829 ft | 449 kts | 264° |
| 2026-05-05 20:27 | 40.29734 | 27.48209 | 27240 ft | 445 kts | 265° |
| 2026-05-05 20:28 | 40.29291 | 27.44217 | 26655 ft | 438 kts | 266° |
| 2026-05-05 20:28 | 40.28854 | 27.40282 | 26077 ft | 435 kts | 266° |
| 2026-05-05 20:28 | 40.28455 | 27.36376 | 25439 ft | 428 kts | 269° |
| 2026-05-05 20:28 | 40.28400 | 27.32504 | 24885 ft | 423 kts | 274° |
| 2026-05-05 20:29 | 40.28432 | 27.28659 | 24332 ft | 420 kts | 275° |
| 2026-05-05 20:29 | 40.28444 | 27.24850 | 23785 ft | 417 kts | 274° |
| 2026-05-05 20:29 | 40.28417 | 27.21108 | 23195 ft | 413 kts | 274° |
| 2026-05-05 20:29 | 40.28394 | 27.17368 | 22653 ft | 409 kts | 274° |
| 2026-05-05 20:30 | 40.28393 | 27.13662 | 22120 ft | 405 kts | 275° |
| 2026-05-05 20:30 | 40.28391 | 27.09980 | 21584 ft | 402 kts | 274° |
| 2026-05-05 20:30 | 40.28376 | 27.06339 | 21060 ft | 395 kts | 274° |
| 2026-05-05 20:30 | 40.28351 | 27.02859 | 20563 ft | 369 kts | 274° |
| 2026-05-05 20:31 | 40.28337 | 26.99597 | 20099 ft | 347 kts | 275° |
| 2026-05-05 20:31 | 40.28331 | 26.96513 | 19660 ft | 332 kts | 275° |
| 2026-05-05 20:31 | 40.28321 | 26.93569 | 19236 ft | 320 kts | 275° |
| 2026-05-05 20:31 | 40.28305 | 26.90698 | 18829 ft | 312 kts | 275° |
| 2026-05-05 20:32 | 40.28292 | 26.87872 | 18424 ft | 306 kts | 275° |
| 2026-05-05 20:32 | 40.28278 | 26.85131 | 17997 ft | 296 kts | 275° |
| 2026-05-05 20:32 | 40.28265 | 26.82479 | 17648 ft | 294 kts | 275° |
| 2026-05-05 20:32 | 40.28253 | 26.79792 | 17271 ft | 293 kts | 275° |
| 2026-05-05 20:33 | 40.28239 | 26.77129 | 16899 ft | 292 kts | 275° |
| 2026-05-05 20:33 | 40.28223 | 26.74478 | 16528 ft | 290 kts | 275° |
| 2026-05-05 20:33 | 40.28208 | 26.71838 | 16155 ft | 289 kts | 275° |
| 2026-05-05 20:33 | 40.28192 | 26.69213 | 15786 ft | 287 kts | 275° |
| 2026-05-05 20:34 | 40.28175 | 26.66602 | 15420 ft | 286 kts | 275° |
| 2026-05-05 20:34 | 40.28156 | 26.64030 | 15061 ft | 277 kts | 275° |
| 2026-05-05 20:34 | 40.28138 | 26.61565 | 14749 ft | 272 kts | 275° |
| 2026-05-05 20:34 | 40.28124 | 26.59094 | 14414 ft | 270 kts | 275° |
| 2026-05-05 20:35 | 40.28107 | 26.56632 | 14073 ft | 269 kts | 275° |
| 2026-05-05 20:35 | 40.28087 | 26.54187 | 13719 ft | 264 kts | 275° |
| 2026-05-05 20:35 | 40.28066 | 26.51824 | 13407 ft | 254 kts | 275° |
| 2026-05-05 20:35 | 40.28049 | 26.49575 | 13125 ft | 245 kts | 276° |
| 2026-05-05 20:36 | 40.28032 | 26.47409 | 12857 ft | 238 kts | 276° |
| 2026-05-05 20:36 | 40.28017 | 26.45257 | 12569 ft | 234 kts | 276° |
| 2026-05-05 20:36 | 40.27998 | 26.43151 | 12285 ft | 228 kts | 276° |
| 2026-05-05 20:36 | 40.27981 | 26.41088 | 12003 ft | 225 kts | 276° |
| 2026-05-05 20:37 | 40.27761 | 26.39054 | 11659 ft | 233 kts | 255° |
| 2026-05-05 20:37 | 40.27203 | 26.37846 | 11477 ft | 237 kts | 236° |
| 2026-05-05 20:37 | 40.25588 | 26.35932 | 11174 ft | 236 kts | 225° |
| 2026-05-05 20:37 | 40.24342 | 26.34537 | 10872 ft | 235 kts | 226° |
| 2026-05-05 20:38 | 40.23112 | 26.33135 | 10563 ft | 234 kts | 226° |
| 2026-05-05 20:38 | 40.21888 | 26.31738 | 10256 ft | 233 kts | 226° |
| 2026-05-05 20:38 | 40.20689 | 26.30378 | 9949 ft | 218 kts | 226° |
| 2026-05-05 20:38 | 40.19584 | 26.29131 | 9692 ft | 200 kts | 227° |
| 2026-05-05 20:39 | 40.18505 | 26.27895 | 9452 ft | 207 kts | 227° |
| 2026-05-05 20:39 | 40.17450 | 26.26698 | 9178 ft | 194 kts | 226° |
| 2026-05-05 20:39 | 40.16432 | 26.25544 | 8926 ft | 197 kts | 227° |
| 2026-05-05 20:39 | 40.15404 | 26.24374 | 8663 ft | 195 kts | 227° |
| 2026-05-05 20:40 | 40.14387 | 26.23223 | 8409 ft | 192 kts | 227° |
| 2026-05-05 20:40 | 40.13381 | 26.22083 | 8160 ft | 189 kts | 227° |
| 2026-05-05 20:40 | 40.12396 | 26.20968 | 7903 ft | 185 kts | 227° |
| 2026-05-05 20:40 | 40.11436 | 26.19882 | 7663 ft | 181 kts | 226° |
| 2026-05-05 20:41 | 40.10497 | 26.18818 | 7430 ft | 177 kts | 226° |
| 2026-05-05 20:41 | 40.09573 | 26.17772 | 7196 ft | 174 kts | 226° |
| 2026-05-05 20:41 | 40.08678 | 26.16745 | 6965 ft | 171 kts | 229° |
| 2026-05-05 20:41 | 40.08298 | 26.15381 | 6546 ft | 161 kts | 285° |
| 2026-05-05 20:42 | 40.08981 | 26.14273 | 6207 ft | 165 kts | 339° |
| 2026-05-05 20:42 | 40.10101 | 26.14085 | 6286 ft | 166 kts | 357° |
| 2026-05-05 20:42 | 40.11217 | 26.14375 | 6181 ft | 172 kts | 32° |
| 2026-05-05 20:42 | 40.11664 | 26.15220 | 6160 ft | 178 kts | 67° |
| 2026-05-05 20:43 | 40.11446 | 26.16860 | 6162 ft | 193 kts | 117° |
| 2026-05-05 20:43 | 40.10567 | 26.18220 | 6253 ft | 199 kts | 132° |
| 2026-05-05 20:43 | 40.09275 | 26.18874 | 6181 ft | 202 kts | 175° |
| 2026-05-05 20:43 | 40.07913 | 26.18464 | 6171 ft | 201 kts | 212° |
| 2026-05-05 20:44 | 40.06950 | 26.17193 | 6195 ft | 195 kts | 241° |
| 2026-05-05 20:44 | 40.06221 | 26.15689 | 6216 ft | 196 kts | 242° |
| 2026-05-05 20:44 | 40.05201 | 26.14502 | 5998 ft | 204 kts | 207° |
| 2026-05-05 20:44 | 40.03858 | 26.14219 | 5768 ft | 191 kts | 174° |
| 2026-05-05 20:45 | 40.01813 | 26.15949 | 5343 ft | 175 kts | 126° |
| 2026-05-05 20:45 | 40.00970 | 26.17229 | 5102 ft | 189 kts | 128° |
| 2026-05-05 20:45 | 40.00101 | 26.18514 | 4845 ft | 189 kts | 128° |
| 2026-05-05 20:46 | 39.99249 | 26.19785 | 4586 ft | 188 kts | 128° |
| 2026-05-05 20:46 | 39.98395 | 26.21069 | 4331 ft | 186 kts | 128° |
| 2026-05-05 20:46 | 39.97868 | 26.22566 | 4056 ft | 181 kts | 97° |
| 2026-05-05 20:46 | 39.97962 | 26.24165 | 3830 ft | 178 kts | 70° |
| 2026-05-05 20:47 | 39.98612 | 26.25507 | 3603 ft | 176 kts | 44° |
| 2026-05-05 20:47 | 39.99545 | 26.26551 | 3396 ft | 180 kts | 40° |
| 2026-05-05 20:47 | 40.00492 | 26.27619 | 3212 ft | 181 kts | 40° |
| 2026-05-05 20:47 | 40.01439 | 26.28697 | 2965 ft | 180 kts | 40° |
| 2026-05-05 20:48 | 40.02384 | 26.29772 | 2722 ft | 179 kts | 40° |
| 2026-05-05 20:48 | 40.03316 | 26.30823 | 2483 ft | 179 kts | 41° |
| 2026-05-05 20:48 | 40.04250 | 26.31886 | 2242 ft | 177 kts | 41° |
| 2026-05-05 20:48 | 40.05176 | 26.32941 | 2008 ft | 176 kts | 41° |
| 2026-05-05 20:49 | 40.06102 | 26.33988 | 1773 ft | 175 kts | 41° |
| 2026-05-05 20:49 | 40.07018 | 26.35030 | 1532 ft | 174 kts | 41° |
| 2026-05-05 20:49 | 40.07915 | 26.36052 | 1307 ft | 173 kts | 41° |
| 2026-05-05 20:49 | 40.08816 | 26.37078 | 1077 ft | 171 kts | 41° |
| 2026-05-05 20:50 | 40.09692 | 26.38071 | 839 ft | 165 kts | 41° |
| 2026-05-05 20:50 | 40.10562 | 26.39060 | 628 ft | 166 kts | 41° |
| 2026-05-05 20:50 | 40.11430 | 26.40051 | 405 ft | 165 kts | 41° |
| 2026-05-05 20:50 | 40.12295 | 26.41037 | 190 ft | 165 kts | 41° |
| 2026-05-05 20:51 | 40.13182 | 26.42052 | 538 ft | 168 kts | 41° |
| 2026-05-05 20:51 | 40.14038 | 26.43026 | 1161 ft | 161 kts | 41° |
| 2026-05-05 20:51 | 40.14859 | 26.43953 | 1909 ft | 152 kts | 40° |
| 2026-05-05 20:51 | 40.15655 | 26.44855 | 2536 ft | 154 kts | 40° |
| 2026-05-05 20:52 | 40.16654 | 26.45476 | 2751 ft | 171 kts | 359° |
| 2026-05-05 20:52 | 40.17645 | 26.44738 | 3238 ft | 168 kts | 307° |
| 2026-05-05 20:52 | 40.18277 | 26.43510 | 4271 ft | 160 kts | 306° |
| 2026-05-05 20:52 | 40.18907 | 26.42289 | 5109 ft | 167 kts | 306° |
| 2026-05-05 20:53 | 40.19529 | 26.40997 | 5481 ft | 173 kts | 306° |
| 2026-05-05 20:53 | 40.20166 | 26.39644 | 5364 ft | 176 kts | 306° |
| 2026-05-05 20:53 | 40.20803 | 26.38295 | 5226 ft | 177 kts | 305° |
| 2026-05-05 20:53 | 40.21082 | 26.36722 | 4949 ft | 187 kts | 264° |
| 2026-05-05 20:54 | 40.20392 | 26.35308 | 4827 ft | 184 kts | 226° |
| 2026-05-05 20:54 | 40.19441 | 26.34137 | 4986 ft | 189 kts | 226° |
| 2026-05-05 20:54 | 40.18487 | 26.32924 | 5019 ft | 191 kts | 226° |
| 2026-05-05 20:54 | 40.17524 | 26.31702 | 4901 ft | 196 kts | 226° |
| 2026-05-05 20:55 | 40.16554 | 26.30465 | 4572 ft | 192 kts | 226° |
| 2026-05-05 20:55 | 40.15612 | 26.29254 | 4239 ft | 187 kts | 226° |
| 2026-05-05 20:55 | 40.14710 | 26.28085 | 3906 ft | 183 kts | 226° |
| 2026-05-05 20:55 | 40.13817 | 26.26917 | 3573 ft | 180 kts | 226° |
| 2026-05-05 20:56 | 40.12944 | 26.25765 | 3237 ft | 177 kts | 226° |
| 2026-05-05 20:56 | 40.12077 | 26.24604 | 2971 ft | 175 kts | 226° |
| 2026-05-05 20:56 | 40.11224 | 26.23484 | 2995 ft | 176 kts | 225° |
| 2026-05-05 20:56 | 40.10211 | 26.22577 | 2984 ft | 177 kts | 204° |
| 2026-05-05 20:57 | 40.08980 | 26.22431 | 2797 ft | 184 kts | 167° |
| 2026-05-05 20:57 | 40.07849 | 26.23141 | 2583 ft | 180 kts | 144° |
| 2026-05-05 20:57 | 40.06960 | 26.24242 | 2401 ft | 177 kts | 134° |
| 2026-05-05 20:57 | 40.06101 | 26.25401 | 2220 ft | 177 kts | 134° |
| 2026-05-05 20:58 | 40.05239 | 26.26551 | 2046 ft | 176 kts | 134° |
| 2026-05-05 20:58 | 40.04402 | 26.27693 | 2000 ft | 172 kts | 132° |
| 2026-05-05 20:58 | 40.04009 | 26.29155 | 1944 ft | 172 kts | 92° |
| 2026-05-05 20:58 | 40.04118 | 26.30712 | 2015 ft | 176 kts | 83° |
| 2026-05-05 20:59 | 40.04551 | 26.32177 | 1937 ft | 176 kts | 47° |
| 2026-05-05 20:59 | 40.05468 | 26.33224 | 1999 ft | 174 kts | 41° |
| 2026-05-05 20:59 | 40.06320 | 26.34219 | 1709 ft | 156 kts | 41° |
| 2026-05-05 20:59 | 40.07123 | 26.35138 | 1487 ft | 148 kts | 41° |
| 2026-05-05 21:00 | 40.07856 | 26.35973 | 1307 ft | 135 kts | 41° |
| 2026-05-05 21:00 | 40.08533 | 26.36744 | 1126 ft | 125 kts | 41° |
| 2026-05-05 21:00 | 40.09190 | 26.37494 | 982 ft | 126 kts | 41° |
| 2026-05-05 21:00 | 40.09837 | 26.38231 | 784 ft | 123 kts | 41° |
| 2026-05-05 21:01 | 40.10471 | 26.38960 | 621 ft | 119 kts | 41° |
| 2026-05-05 21:01 | 40.11090 | 26.39671 | 482 ft | 118 kts | 40° |
| 2026-05-05 21:01 | 40.11705 | 26.40371 | 339 ft | 116 kts | 40° |
| 2026-05-05 21:01 | 40.12313 | 26.41049 | 191 ft | 113 kts | 40° |
| 2026-05-05 21:02 | 40.12907 | 26.41722 | 42 ft | 112 kts | 40° |
| 2026-05-05 21:02 | 40.13462 | 26.42349 | 23 ft | 96 kts | 42° |
| 2026-05-05 21:02 | 40.13879 | 26.42828 | 25 ft | 55 kts | 42° |
| 2026-05-05 21:02 | 40.14022 | 26.43008 | 26 ft | 10 kts | 353° |
| 2026-05-05 21:03 | 40.14000 | 26.42946 | 27 ft | 14 kts | 218° |
| 2026-05-05 21:03 | 40.13882 | 26.42829 | 27 ft | 24 kts | 217° |
| 2026-05-05 21:03 | 40.13755 | 26.42689 | 25 ft | 22 kts | 221° |
| 2026-05-05 21:03 | 40.13704 | 26.42581 | 21 ft | 13 kts | 289° |
| 2026-05-05 21:04 | 40.13757 | 26.42496 | 22 ft | 11 kts | 310° |
| 2026-05-05 21:04 | 40.13810 | 26.42444 | 24 ft | 8 kts | 352° |
| 2026-05-05 21:04 | 40.13852 | 26.42457 | 25 ft | 6 kts | 340° |
| 2026-05-05 21:04 | 40.13873 | 26.42427 | 24 ft | 0 kts | 311° |